createdAt,value
2022-11-24T00:01:08.765Z,23.17
2022-11-24T00:04:11.498Z,20.90
2022-11-24T00:07:13.478Z,20.27
2022-11-24T00:10:15.588Z,21.17
2022-11-24T00:13:17.545Z,22.53
2022-11-24T00:16:19.528Z,23.13
2022-11-24T00:19:21.538Z,21.17
2022-11-24T00:22:23.491Z,23.00
2022-11-24T00:25:25.432Z,21.73
2022-11-24T00:28:27.425Z,20.73
2022-11-24T00:31:33.930Z,20.05
2022-11-24T00:34:36.186Z,20.10
2022-11-24T00:37:38.237Z,17.42
2022-11-24T00:40:40.218Z,19.25
2022-11-24T00:43:42.185Z,19.47
2022-11-24T00:46:44.250Z,20.25
2022-11-24T00:49:46.324Z,18.90
2022-11-24T00:52:48.268Z,21.60
2022-11-24T00:55:50.473Z,20.70
2022-11-24T00:58:52.597Z,21.00
2022-11-24T01:01:54.658Z,21.23
2022-11-24T01:04:56.641Z,19.30
2022-11-24T01:07:58.593Z,19.40
2022-11-24T01:11:26.902Z,19.33
2022-11-24T01:14:28.872Z,18.43
2022-11-24T01:17:30.835Z,18.63
2022-11-24T01:20:32.873Z,16.83
2022-11-24T01:23:34.923Z,21.15
2022-11-24T01:26:36.852Z,21.15
2022-11-24T01:29:38.855Z,19.13
2022-11-24T01:32:40.829Z,19.35
2022-11-24T01:35:42.788Z,19.27
2022-11-24T01:38:44.785Z,19.63
2022-11-24T01:41:46.756Z,18.48
2022-11-24T01:44:49.210Z,20.37
2022-11-24T01:47:51.254Z,20.50
2022-11-24T01:50:55.847Z,17.58
2022-11-24T01:54:00.819Z,18.58
2022-11-24T01:57:06.191Z,18.42
2022-11-24T02:00:09.981Z,18.10
2022-11-24T02:03:23.089Z,16.42
2022-11-24T02:06:29.260Z,15.87
2022-11-24T02:09:46.833Z,18.05
2022-11-24T02:12:50.454Z,16.23
2022-11-24T02:15:53.187Z,15.83
2022-11-24T02:18:55.322Z,17.40
2022-11-24T02:21:57.526Z,18.75
2022-11-24T02:25:11.876Z,14.57
2022-11-24T02:28:15.727Z,13.35
2022-11-24T02:31:17.994Z,15.65
2022-11-24T02:34:20.529Z,14.80
2022-11-24T02:37:22.447Z,16.17
2022-11-24T02:40:26.737Z,15.85
2022-11-24T02:43:30.546Z,14.98
2022-11-24T02:46:32.522Z,16.07
2022-11-24T02:49:34.588Z,18.50
2022-11-24T02:52:36.585Z,21.00
2022-11-24T02:55:38.540Z,23.77
2022-11-24T02:58:40.569Z,24.98
2022-11-24T03:01:42.662Z,21.50
2022-11-24T03:04:44.727Z,19.13
2022-11-24T03:07:46.722Z,15.07
2022-11-24T03:10:49.317Z,18.17
2022-11-24T03:13:51.372Z,17.70
2022-11-24T03:16:53.307Z,20.03
2022-11-24T03:19:57.164Z,17.85
2022-11-24T03:23:02.163Z,17.80
2022-11-24T03:26:08.192Z,19.83
2022-11-24T03:29:10.185Z,19.08
2022-11-24T03:32:12.118Z,19.25
2022-11-24T03:35:14.092Z,16.75
2022-11-24T03:38:16.047Z,15.90
2022-11-24T03:41:18.024Z,17.77
2022-11-24T03:44:20.018Z,16.35
2022-11-24T03:47:21.964Z,18.40
2022-11-24T03:50:23.935Z,16.42
2022-11-24T03:53:26.718Z,15.43
2022-11-24T03:56:28.681Z,16.42
2022-11-24T03:59:30.624Z,15.20
2022-11-24T04:02:32.695Z,16.77
2022-11-24T04:05:36.362Z,16.10
2022-11-24T04:08:38.383Z,16.00
2022-11-24T04:11:58.652Z,16.17
2022-11-24T04:15:00.639Z,16.95
2022-11-24T04:18:02.614Z,18.27
2022-11-24T04:21:04.645Z,16.58
2022-11-24T04:24:06.713Z,17.75
2022-11-24T04:27:08.644Z,20.45
2022-11-24T04:30:10.689Z,18.85
2022-11-24T04:33:12.989Z,19.48
2022-11-24T04:36:15.020Z,19.70
2022-11-24T04:39:22.739Z,18.50
2022-11-24T04:42:28.176Z,20.88
2022-11-24T04:45:30.137Z,20.00
2022-11-24T04:48:32.108Z,20.30
2022-11-24T04:51:34.093Z,22.88
2022-11-24T04:54:36.816Z,22.75
2022-11-24T04:57:38.895Z,22.83
2022-11-24T05:00:40.906Z,22.73
2022-11-24T05:03:42.831Z,25.02
2022-11-24T05:06:44.838Z,23.67
2022-11-24T05:10:05.604Z,22.47
2022-11-24T05:13:10.164Z,23.95
2022-11-24T05:16:12.614Z,20.88
2022-11-24T05:19:14.652Z,26.10
2022-11-24T05:22:16.640Z,23.88
2022-11-24T05:25:18.658Z,24.38
2022-11-24T05:28:20.687Z,25.27
2022-11-24T05:31:22.746Z,25.30
2022-11-24T05:34:24.799Z,26.17
2022-11-24T05:37:28.118Z,27.95
2022-11-24T05:40:30.760Z,26.33
2022-11-24T05:43:32.742Z,26.77
2022-11-24T05:46:34.779Z,27.35
2022-11-24T05:49:36.892Z,28.90
2022-11-24T05:52:39.057Z,30.67
2022-11-24T05:55:41.100Z,27.45
2022-11-24T05:58:43.158Z,31.92
2022-11-24T06:01:45.251Z,34.80
2022-11-24T06:04:47.370Z,34.83
2022-11-24T06:07:49.722Z,31.83
2022-11-24T06:10:51.743Z,29.23
2022-11-24T06:13:53.810Z,31.23
2022-11-24T06:16:55.937Z,31.13
2022-11-24T06:19:58.202Z,30.20
2022-11-24T06:23:00.792Z,28.70
2022-11-24T06:26:02.934Z,32.40
2022-11-24T06:29:05.129Z,29.10
2022-11-24T06:32:07.373Z,30.60
2022-11-24T06:35:09.841Z,30.23
2022-11-24T06:38:12.106Z,28.40
2022-11-24T06:41:15.142Z,29.23
2022-11-24T06:44:17.548Z,30.33
2022-11-24T06:47:19.668Z,29.35
2022-11-24T06:50:22.187Z,29.90
2022-11-24T06:53:24.706Z,29.50
2022-11-24T06:56:27.033Z,34.50
2022-11-24T06:59:29.680Z,35.50
2022-11-24T07:02:31.911Z,24.92
2022-11-24T07:05:54.652Z,33.72
2022-11-24T07:08:56.988Z,32.97
2022-11-24T07:11:59.147Z,32.17
2022-11-24T07:15:01.397Z,33.10
2022-11-24T07:18:03.548Z,36.67
2022-11-24T07:21:05.760Z,32.97
2022-11-24T07:24:07.862Z,33.55
2022-11-24T07:27:09.883Z,35.22
2022-11-24T07:30:12.027Z,36.63
2022-11-24T07:33:14.139Z,35.67
2022-11-24T07:36:16.177Z,35.40
2022-11-24T07:39:18.503Z,37.95
2022-11-24T07:42:21.171Z,38.53
2022-11-24T07:45:23.415Z,39.35
2022-11-24T07:48:25.756Z,38.05
2022-11-24T07:51:28.050Z,37.80
2022-11-24T07:54:30.783Z,34.33
2022-11-24T07:57:33.368Z,34.13
2022-11-24T08:00:36.031Z,35.35
2022-11-24T08:03:38.353Z,33.20
2022-11-24T08:06:45.939Z,31.52
2022-11-24T08:09:50.546Z,35.45
2022-11-24T08:12:52.616Z,34.33
2022-11-24T08:15:54.782Z,31.90
2022-11-24T08:18:56.935Z,33.40
2022-11-24T08:21:59.075Z,32.40
2022-11-24T08:25:01.148Z,33.92
2022-11-24T08:28:04.569Z,30.55
2022-11-24T08:31:08.340Z,30.25
2022-11-24T08:34:10.670Z,29.50
2022-11-24T08:37:12.902Z,31.52
2022-11-24T08:40:15.065Z,28.95
2022-11-24T08:43:17.309Z,27.67
2022-11-24T08:46:19.925Z,30.73
2022-11-24T08:49:22.781Z,29.27
2022-11-24T08:52:24.908Z,31.77
2022-11-24T08:55:27.121Z,29.13
2022-11-24T08:58:29.757Z,30.05
2022-11-24T09:01:32.048Z,29.95
2022-11-24T09:04:34.323Z,28.00
2022-11-24T09:07:36.690Z,29.55
2022-11-24T09:10:38.838Z,27.50
2022-11-24T09:13:41.072Z,28.80
2022-11-24T09:16:45.678Z,25.13
2022-11-24T09:19:48.627Z,28.38
2022-11-24T09:22:50.781Z,26.67
2022-11-24T09:25:52.893Z,27.77
2022-11-24T09:28:55.934Z,26.42
2022-11-24T09:32:00.819Z,25.27
2022-11-24T09:35:10.551Z,23.03
2022-11-24T09:38:13.898Z,22.23
2022-11-24T09:41:31.746Z,23.58
2022-11-24T09:45:04.765Z,24.33
2022-11-24T09:48:12.564Z,24.00
2022-11-24T09:51:15.474Z,21.85
2022-11-24T09:54:21.164Z,22.42
2022-11-24T09:57:25.789Z,19.75
2022-11-24T10:00:27.952Z,22.45
2022-11-24T10:03:34.496Z,19.60
2022-11-24T10:06:44.635Z,20.73
2022-11-24T10:09:55.664Z,19.92
2022-11-24T10:12:57.940Z,21.17
2022-11-24T10:16:03.001Z,19.73
2022-11-24T10:19:08.003Z,20.48
2022-11-24T10:22:26.942Z,20.45
2022-11-24T10:25:35.468Z,21.13
2022-11-24T10:28:47.510Z,21.27
2022-11-24T10:31:53.677Z,21.17
2022-11-24T10:34:59.610Z,22.05
2022-11-24T10:38:16.327Z,20.93
2022-11-24T10:41:28.177Z,21.23
2022-11-24T10:44:30.482Z,21.45
2022-11-24T10:47:32.700Z,21.80
2022-11-24T10:50:42.763Z,18.88
2022-11-24T10:53:46.162Z,19.65
2022-11-24T10:56:50.560Z,18.10
2022-11-24T10:59:52.720Z,19.40
2022-11-24T11:03:11.679Z,20.50
2022-11-24T11:06:15.066Z,20.15
2022-11-24T11:09:19.716Z,18.40
2022-11-24T11:15:46.421Z,18.90
2022-11-24T11:18:49.545Z,17.90
2022-11-24T11:22:02.687Z,17.90
2022-11-24T11:25:16.111Z,18.17
2022-11-24T11:28:18.593Z,18.13
2022-11-24T11:31:22.612Z,19.25
2022-11-24T11:34:29.968Z,18.40
2022-11-24T11:37:40.499Z,19.48
2022-11-24T11:40:44.027Z,17.40
2022-11-24T11:43:47.738Z,19.42
2022-11-24T11:46:50.287Z,19.42
2022-11-24T11:49:53.075Z,19.43
2022-11-24T11:52:57.869Z,17.67
2022-11-24T11:56:02.876Z,21.40
2022-11-24T11:59:05.023Z,19.25
2022-11-24T12:02:10.006Z,20.75
2022-11-24T12:05:18.274Z,20.90
2022-11-24T12:08:21.593Z,19.58
2022-11-24T12:11:30.018Z,20.10
2022-11-24T12:14:52.390Z,19.48
2022-11-24T12:18:21.472Z,22.15
2022-11-24T12:21:35.411Z,21.07
2022-11-24T12:24:46.382Z,19.20
2022-11-24T12:27:55.159Z,20.52
2022-11-24T12:31:07.860Z,20.50
2022-11-24T12:34:10.264Z,21.73
2022-11-24T12:37:19.063Z,22.17
2022-11-24T12:40:46.648Z,20.55
2022-11-24T12:43:53.130Z,17.37
2022-11-24T12:47:07.372Z,20.02
2022-11-24T12:50:12.479Z,19.30
2022-11-24T12:53:19.368Z,20.02
2022-11-24T12:56:26.290Z,18.60
2022-11-24T12:59:40.078Z,18.73
2022-11-24T13:03:00.834Z,21.05
2022-11-24T13:06:23.163Z,19.87
2022-11-24T13:09:25.295Z,19.23
2022-11-24T13:12:27.706Z,18.48
2022-11-24T13:15:45.756Z,16.35
2022-11-24T13:19:21.262Z,16.75
2022-11-24T13:22:25.781Z,15.87
2022-11-24T13:25:32.256Z,16.00
2022-11-24T13:29:03.609Z,12.25
2022-11-24T13:32:23.368Z,13.43
2022-11-24T13:35:25.427Z,15.27
2022-11-24T13:38:40.790Z,13.43
2022-11-24T13:41:42.909Z,14.32
2022-11-24T13:44:48.847Z,14.27
2022-11-24T13:47:50.897Z,13.63
2022-11-24T13:50:58.966Z,14.70
2022-11-24T13:54:01.577Z,15.57
2022-11-24T13:57:22.377Z,12.02
2022-11-24T14:00:26.176Z,13.43
2022-11-24T14:03:33.981Z,14.30
2022-11-24T14:06:39.543Z,9.27
2022-11-24T14:09:41.658Z,13.93
2022-11-24T14:12:44.032Z,14.18
2022-11-24T14:15:58.394Z,14.77
2022-11-24T14:19:09.019Z,14.20
2022-11-24T14:22:31.683Z,14.82
2022-11-24T14:25:35.269Z,14.73
2022-11-24T14:28:37.413Z,14.88
2022-11-24T14:31:39.786Z,14.63
2022-11-24T14:34:41.928Z,13.10
2022-11-24T14:37:43.996Z,13.10
2022-11-24T14:40:50.187Z,12.38
2022-11-24T14:44:12.582Z,11.13
2022-11-24T14:47:28.761Z,14.10
2022-11-24T14:50:32.467Z,14.38
2022-11-24T14:53:34.589Z,13.43
2022-11-24T14:56:37.696Z,14.48
2022-11-24T14:59:39.889Z,13.63
2022-11-24T15:02:48.374Z,13.43
2022-11-24T15:05:58.600Z,16.20
2022-11-24T15:09:00.718Z,13.90
2022-11-24T15:12:10.165Z,15.00
2022-11-24T15:15:15.134Z,16.27
2022-11-24T15:18:28.114Z,16.20
2022-11-24T15:21:34.131Z,15.75
2022-11-24T15:24:48.582Z,17.05
2022-11-24T15:27:50.992Z,15.70
2022-11-24T15:30:54.512Z,19.48
2022-11-24T15:33:56.565Z,19.38
2022-11-24T15:36:58.648Z,20.35
2022-11-24T15:40:00.658Z,18.53
2022-11-24T15:43:06.426Z,15.65
2022-11-24T15:46:09.406Z,16.30
2022-11-24T15:49:11.536Z,17.40
2022-11-24T15:52:17.533Z,17.00
2022-11-24T15:55:20.906Z,14.18
2022-11-24T15:58:23.282Z,16.33
2022-11-24T16:01:27.769Z,17.85
2022-11-24T16:04:29.961Z,23.73
2022-11-24T16:07:32.320Z,22.55
2022-11-24T16:10:36.164Z,18.10
2022-11-24T16:13:38.293Z,18.40
2022-11-24T16:16:41.501Z,19.02
2022-11-24T16:19:43.761Z,18.33
2022-11-24T16:22:45.844Z,17.80
2022-11-24T16:25:47.821Z,19.00
2022-11-24T16:28:49.900Z,17.83
2022-11-24T16:31:52.211Z,20.80
2022-11-24T16:34:54.361Z,22.63
2022-11-24T16:37:56.420Z,22.20
2022-11-24T16:40:58.656Z,20.70
2022-11-24T16:44:00.759Z,18.55
2022-11-24T16:47:03.000Z,20.02
2022-11-24T16:50:05.318Z,18.53
2022-11-24T16:53:07.514Z,20.67
2022-11-24T16:56:10.100Z,22.05
2022-11-24T16:59:12.403Z,21.33
2022-11-24T17:02:14.551Z,21.17
2022-11-24T17:05:16.616Z,23.92
2022-11-24T17:08:18.711Z,30.02
2022-11-24T17:11:22.949Z,28.50
2022-11-24T17:14:24.945Z,30.40
2022-11-24T17:17:26.988Z,27.55
2022-11-24T17:20:31.392Z,27.30
2022-11-24T17:23:33.505Z,30.05
2022-11-24T17:26:35.616Z,30.70
2022-11-24T17:29:37.639Z,26.48
2022-11-24T17:32:39.692Z,27.40
2022-11-24T17:35:41.767Z,27.98
2022-11-24T17:38:43.833Z,25.05
2022-11-24T17:41:46.299Z,25.80
2022-11-24T17:44:48.307Z,26.80
2022-11-24T17:47:50.340Z,28.42
2022-11-24T17:51:02.250Z,25.30
2022-11-24T17:54:31.203Z,24.92
2022-11-24T17:57:26.430Z,24.90
2022-11-24T18:00:28.441Z,25.52
2022-11-24T18:03:32.546Z,34.72
2022-11-24T18:06:35.323Z,34.10
2022-11-24T18:09:38.268Z,32.55
2022-11-24T18:12:40.400Z,27.67
2022-11-24T18:15:42.473Z,25.38
2022-11-24T18:18:47.390Z,23.67
2022-11-24T18:21:52.266Z,23.67
2022-11-24T18:24:54.274Z,21.80
2022-11-24T18:27:56.365Z,27.30
2022-11-24T18:31:05.562Z,26.95
2022-11-24T18:34:07.904Z,24.70
2022-11-24T18:37:13.454Z,32.13
2022-11-24T18:40:15.524Z,30.23
2022-11-24T18:43:17.701Z,27.57
2022-11-24T18:46:19.827Z,23.90
2022-11-24T18:49:21.857Z,22.58
2022-11-24T18:52:23.898Z,33.53
2022-11-24T18:55:25.981Z,31.70
2022-11-24T18:58:30.218Z,29.02
2022-11-24T19:01:32.549Z,26.63
2022-11-24T19:04:34.993Z,26.77
2022-11-24T19:07:37.499Z,24.80
2022-11-24T19:10:39.960Z,26.75
2022-11-24T19:13:42.093Z,23.43
2022-11-24T19:16:44.774Z,27.30
2022-11-24T19:19:47.265Z,25.77
2022-11-24T19:22:49.325Z,25.63
2022-11-24T19:25:51.338Z,25.17
2022-11-24T19:28:53.537Z,28.33
2022-11-24T19:31:55.673Z,26.65
2022-11-24T19:34:57.781Z,25.63
2022-11-24T19:37:59.778Z,26.02
2022-11-24T19:41:02.011Z,28.55
2022-11-24T19:44:04.061Z,25.73
2022-11-24T19:47:06.161Z,25.05
2022-11-24T19:50:10.492Z,25.58
2022-11-24T19:53:12.698Z,28.87
2022-11-24T19:56:16.668Z,24.23
2022-11-24T19:59:18.815Z,26.48
2022-11-24T20:02:20.942Z,26.13
2022-11-24T20:05:22.962Z,22.75
2022-11-24T20:08:25.049Z,24.75
2022-11-24T20:11:27.982Z,23.75
2022-11-24T20:14:30.127Z,22.03
2022-11-24T20:17:32.921Z,20.70
2022-11-24T20:20:35.001Z,21.48
2022-11-24T20:23:37.105Z,21.73
2022-11-24T20:26:43.595Z,24.13
2022-11-24T20:29:47.043Z,23.08
2022-11-24T20:32:49.210Z,22.50
2022-11-24T20:35:51.293Z,21.65
2022-11-24T20:38:53.781Z,23.50
2022-11-24T20:41:56.071Z,22.67
2022-11-24T20:45:00.960Z,22.23
2022-11-24T20:48:02.977Z,24.63
2022-11-24T20:51:06.054Z,21.80
2022-11-24T20:54:08.824Z,25.73
2022-11-24T20:57:10.809Z,21.48
2022-11-24T21:00:13.868Z,21.67
2022-11-24T21:03:15.872Z,24.23
2022-11-24T21:06:17.927Z,24.08
2022-11-24T21:09:20.028Z,23.70
2022-11-24T21:12:22.113Z,27.85
2022-11-24T21:15:24.184Z,25.10
2022-11-24T21:18:26.241Z,25.63
2022-11-24T21:21:33.417Z,25.80
2022-11-24T21:24:35.723Z,23.27
2022-11-24T21:27:37.892Z,24.67
2022-11-24T21:30:39.921Z,26.00
2022-11-24T21:33:43.329Z,26.73
2022-11-24T21:36:45.707Z,25.77
2022-11-24T21:39:48.302Z,22.95
2022-11-24T21:42:50.389Z,23.48
2022-11-24T21:45:52.593Z,24.07
2022-11-24T21:48:54.665Z,26.60
2022-11-24T21:51:56.771Z,26.02
2022-11-24T21:54:59.004Z,24.83
2022-11-24T21:58:00.949Z,25.23
2022-11-24T22:01:10.484Z,24.60
2022-11-24T22:04:12.539Z,22.55
2022-11-24T22:07:14.656Z,23.33
2022-11-24T22:10:17.115Z,23.73
2022-11-24T22:13:19.861Z,21.23
2022-11-24T22:16:22.931Z,22.27
2022-11-24T22:19:24.957Z,22.55
2022-11-24T22:22:26.989Z,20.02
2022-11-24T22:25:28.981Z,23.20
2022-11-24T22:28:32.295Z,19.88
2022-11-24T22:31:34.459Z,19.55
2022-11-24T22:34:36.740Z,21.20
2022-11-24T22:37:39.016Z,23.35
2022-11-24T22:40:41.013Z,20.58
2022-11-24T22:43:43.795Z,21.73
2022-11-24T22:46:45.792Z,19.30
2022-11-24T22:49:47.827Z,21.42
2022-11-24T22:52:50.120Z,20.05
2022-11-24T22:55:52.114Z,21.57
2022-11-24T22:58:54.234Z,20.65
2022-11-24T23:01:56.238Z,20.23
2022-11-24T23:04:58.200Z,22.77
2022-11-24T23:08:00.236Z,21.40
2022-11-24T23:11:03.297Z,22.15
2022-11-24T23:14:06.365Z,22.25
2022-11-24T23:17:08.385Z,23.03
2022-11-24T23:20:10.741Z,21.67
2022-11-24T23:23:12.777Z,23.70
2022-11-24T23:26:16.136Z,25.47
2022-11-24T23:29:18.171Z,21.70
2022-11-24T23:32:20.142Z,26.80
2022-11-24T23:35:22.262Z,22.98
2022-11-24T23:38:28.703Z,20.48
2022-11-24T23:41:31.789Z,21.25
2022-11-24T23:44:34.146Z,20.33
2022-11-24T23:47:36.385Z,22.20
2022-11-24T23:50:38.404Z,23.35
2022-11-24T23:53:41.187Z,21.58
2022-11-24T23:56:43.211Z,23.67
2022-11-24T23:59:45.259Z,24.38
